ADDS TAF Board (Experimental) INFO Settings

IDs: Format: Expanded Condensed

KPHX - Phoenix/Sky Harbor, AZ, US

Issued at 2030 UTC 04 Mar 2015
Updated at: 2242 UTC 04 Mar 2015
Time2151Z 04/23Z 05/00Z 05/01Z 05/02Z 05/03Z 05/04Z 05/05Z 05/06Z 05/07Z 05/08Z 05/09Z 05/10Z 05/11Z
Type OBS PRVL PRVL PRVL PRVL PRVL PRVL PRVL PRVL PRVL PRVL PRVL PRVL PRVL
VIS 10 >6 >6 >6 >6 >6 >6 >6 >6 >6 >6 >6 >6 >6
CIG -- -- -- -- -- -- -- -- -- -- -- -- -- --
Cover FEW FEW FEW FEW FEW SKC SKC SKC SKC SKC SKC SKC SKC SKC
FltCat VFR VFR VFR VFR VFR VFR VFR VFR VFR VFR VFR VFR VFR VFR
WX -- -- -- -- -- -- -- -- -- -- -- -- -- --
WDir 280 280 280 280 280 260 260 260 80 80 80 80 80 80
WSpd 5 7 7 7 7 4 4 4 4 4 4 4 4 4
WGst -- -- -- -- -- -- -- -- -- -- -- -- -- --
R07/25
XWnd 1 1 1 1 1 -1 -1 -1 1 1 1 1 1 1
HWnd -5 -7 -7 -7 -7 -4 -4 -4 4 4 4 4 4 4
R08/26
XWnd 1 1 1 1 1 -1 -1 -1 1 1 1 1 1 1
HWnd -5 -7 -7 -7 -7 -4 -4 -4 4 4 4 4 4 4

NOTE: TEMPO conditions in [brackets]. Keep in mind TEMPO conditions might be better (lower impact) than prevailing conditions.

Raw TAF
KPHX 042030Z 0421/0518 28007KT P6SM FEW070
  FM050300 26004KT P6SM SKC
  FM050600 08004KT P6SM SKC
  FM051600 08008KT P6SM SKC


Raw METAR
KPHX 042151Z 28005KT 10SM FEW065 20/M03 A2998 RMK AO2 SLP144 T02001028
KPHX 042051Z 31009KT 10SM FEW065 20/M02 A2999 RMK AO2 SLP147 T02001022 58005
KPHX 041951Z VRB04KT 10SM FEW065 18/01 A3000 RMK AO2 SLP151 T01830011

METAR Board
Radar Display
Forecast Discussion

TAF Board Legend

Potential Impact
Threat None Slight Moderate High
Visibility (sm) ≥5.1 5.1>X≥3 3>X≥1 <1
Ceiling (100 ft) ≥30.1 30.1>X≥10 10>X≥5 <5
Wind Speed (kt) <10 10≤X<20 20≤X<30 ≥30
Wind Gust (kt) <15 15≤X<25 25≤X<35 ≥35
Weather No Wx Reported VCTS,-TS,-FZRA,SN TS,FZRA +TS,+FZRA,+SN